Time;durP1;ratioP1;P1;durP2;ratioP2;P2;SDS_P1;SDS_P2;PMS_P1;PMS_P2;Temp;Humidity;BMP_temperature;BMP_pressure;BME280_temperature;BME280_humidity;BME280_pressure;Samples;Min_cycle;Max_cycle;Signal;HPM_P1;HPM_P2
2022/09/07 00:02:24;;;;;;;17.85;6.43;;;;;;;17.32;99.77;101146.78;5031988;28;20033;-85
2022/09/07 00:04:49;;;;;;;15.68;6.45;;;;;;;17.30;100.00;101146.91;5032650;28;20033;-85
2022/09/07 00:07:15;;;;;;;15.48;6.07;;;;;;;17.22;98.45;101131.38;5029607;28;20068;-86
2022/09/07 00:09:40;;;;;;;14.30;4.80;;;;;;;17.20;99.39;101125.22;5031837;28;20199;-85
2022/09/07 00:12:05;;;;;;;13.77;4.95;;;;;;;17.19;100.00;101123.53;5029597;28;20144;-85
2022/09/07 00:14:31;;;;;;;13.48;4.93;;;;;;;17.15;99.57;101113.13;5033410;28;20025;-85
2022/09/07 00:16:59;;;;;;;13.23;4.72;;;;;;;17.06;99.02;101110.28;5031626;28;20040;-85
2022/09/07 00:19:24;;;;;;;17.05;5.00;;;;;;;17.00;99.13;101101.84;5031245;28;20025;-85
2022/09/07 00:21:49;;;;;;;15.82;5.47;;;;;;;16.96;99.93;101119.47;5034262;28;20100;-85
2022/09/07 00:24:15;;;;;;;16.42;5.45;;;;;;;16.89;99.08;101116.47;5031884;28;20148;-86
2022/09/07 00:26:40;;;;;;;15.63;5.40;;;;;;;16.86;100.00;101111.31;5031252;28;20036;-86
2022/09/07 00:29:06;;;;;;;17.60;5.97;;;;;;;16.78;99.35;101114.78;5029714;28;20032;-86
2022/09/07 00:31:32;;;;;;;15.95;5.35;;;;;;;16.73;99.83;101108.91;5032175;28;20024;-86
2022/09/07 00:33:59;;;;;;;16.42;5.88;;;;;;;16.68;100.00;101109.34;5032837;28;20021;-86
2022/09/07 00:36:25;;;;;;;17.27;6.70;;;;;;;16.64;100.00;101107.94;5031671;28;20083;-86
2022/09/07 00:38:51;;;;;;;18.88;7.55;;;;;;;16.56;99.53;101099.66;5031996;28;20025;-86
2022/09/07 00:41:18;;;;;;;17.13;6.05;;;;;;;16.49;99.50;101091.25;5031736;28;20545;-86
2022/09/07 00:43:55;;;;;;;18.42;6.20;;;;;;;16.47;100.00;101085.13;5024655;28;20017;-86
2022/09/07 00:46:26;;;;;;;19.10;6.82;;;;;;;16.41;100.00;101074.84;5031741;28;20065;-86
2022/09/07 00:49:09;;;;;;;16.67;6.15;;;;;;;16.40;100.00;101071.28;5029104;28;20048;-86
2022/09/07 00:51:40;;;;;;;17.15;6.43;;;;;;;16.36;100.00;101067.13;5031369;28;20048;-86
2022/09/07 00:54:09;;;;;;;17.92;5.88;;;;;;;16.34;100.00;101062.84;5031824;28;20017;-86
2022/09/07 00:56:42;;;;;;;17.52;5.93;;;;;;;16.34;100.00;101061.00;5030698;28;20889;-86
2022/09/07 00:59:09;;;;;;;16.08;5.60;;;;;;;16.31;100.00;101053.16;5029318;28;20426;-87
2022/09/07 01:01:36;;;;;;;18.42;6.72;;;;;;;16.30;100.00;101054.16;5028216;28;20026;-85
2022/09/07 01:04:02;;;;;;;18.33;6.05;;;;;;;16.30;100.00;101065.00;5029552;28;20477;-85
2022/09/07 01:06:31;;;;;;;16.00;5.50;;;;;;;16.29;100.00;101066.00;5029337;28;20022;-85
2022/09/07 01:09:09;;;;;;;16.33;6.10;;;;;;;16.25;100.00;101062.75;5032134;28;20118;-86
2022/09/07 01:11:35;;;;;;;16.40;5.70;;;;;;;16.20;100.00;101058.75;5032014;28;20030;-85
2022/09/07 01:14:04;;;;;;;14.77;5.22;;;;;;;16.17;100.00;101059.03;5030284;28;20087;-86
2022/09/07 01:16:48;;;;;;;16.83;5.93;;;;;;;16.13;100.00;101060.31;5035033;28;20121;-86
2022/09/07 01:19:39;;;;;;;16.52;5.78;;;;;;;16.11;100.00;101059.63;5027966;28;20038;-86
2022/09/07 01:22:19;;;;;;;18.85;6.03;;;;;;;16.07;100.00;101072.59;5029283;28;20025;-86
2022/09/07 01:25:09;;;;;;;14.85;5.63;;;;;;;16.00;100.00;101074.16;5032580;28;20021;-86
2022/09/07 01:28:06;;;;;;;15.40;5.35;;;;;;;15.98;100.00;101066.16;5030118;28;20030;-86
2022/09/07 01:30:36;;;;;;;13.15;4.97;;;;;;;15.89;100.00;101069.75;5029212;28;20033;-86
2022/09/07 01:33:53;;;;;;;13.57;5.13;;;;;;;15.90;100.00;101074.13;5030626;28;20034;-86
2022/09/07 01:36:46;;;;;;;15.82;4.63;;;;;;;15.84;100.00;101077.44;5008493;28;20133;-86
2022/09/07 01:39:11;;;;;;;12.68;4.88;;;;;;;15.80;100.00;101071.44;5018839;28;20034;-86
2022/09/07 01:41:45;;;;;;;17.17;5.68;;;;;;;15.77;100.00;101082.53;5023821;28;20496;-86
2022/09/07 01:44:25;;;;;;;14.75;4.90;;;;;;;15.75;100.00;101070.97;5030940;28;20112;-86
2022/09/07 01:47:06;;;;;;;14.00;4.97;;;;;;;15.70;100.00;101065.97;5030699;28;20033;-86
2022/09/07 01:49:51;;;;;;;19.83;5.55;;;;;;;15.69;100.00;101063.41;5030643;28;20469;-86
2022/09/07 01:52:38;;;;;;;16.13;5.13;;;;;;;15.68;100.00;101065.28;5030242;28;20500;-86
2022/09/07 01:55:16;;;;;;;17.00;5.35;;;;;;;15.66;100.00;101075.38;5029475;28;20033;-86
2022/09/07 01:57:54;;;;;;;13.57;5.03;;;;;;;15.64;100.00;101077.38;5026871;28;20030;-86
2022/09/07 02:00:19;;;;;;;16.92;5.43;;;;;;;15.61;100.00;101077.66;5036711;28;20038;-86
2022/09/07 02:02:50;;;;;;;15.57;5.28;;;;;;;15.59;100.00;101063.38;5032152;28;20037;-85
2022/09/07 02:05:30;;;;;;;14.60;4.95;;;;;;;15.57;100.00;101069.97;5029629;28;20120;-85
2022/09/07 02:08:28;;;;;;;13.95;5.38;;;;;;;15.59;100.00;101065.25;5023098;28;20052;-85
2022/09/07 02:10:59;;;;;;;14.23;4.75;;;;;;;15.52;100.00;101068.53;5023673;28;20029;-85
2022/09/07 02:13:34;;;;;;;13.40;4.50;;;;;;;15.52;100.00;101067.66;5030721;28;20034;-85
2022/09/07 02:16:01;;;;;;;15.95;5.03;;;;;;;15.49;100.00;101076.94;5028738;28;20033;-85
2022/09/07 02:18:32;;;;;;;15.43;5.38;;;;;;;15.46;100.00;101062.78;5029522;28;20092;-85
2022/09/07 02:21:00;;;;;;;14.02;4.95;;;;;;;15.46;100.00;101079.03;5026391;28;20468;-85
2022/09/07 02:23:31;;;;;;;14.52;5.07;;;;;;;15.44;100.00;101073.75;5030641;28;20112;-85
2022/09/07 02:26:02;;;;;;;15.20;5.07;;;;;;;15.42;100.00;101066.78;5028928;28;20396;-85
2022/09/07 02:28:31;;;;;;;14.77;5.53;;;;;;;15.41;100.00;101070.50;5044947;28;20337;-85
2022/09/07 02:30:56;;;;;;;12.93;5.20;;;;;;;15.38;100.00;101066.19;5030378;28;20030;-85
2022/09/07 02:33:22;;;;;;;22.13;5.85;;;;;;;15.38;100.00;101069.75;5031250;28;20440;-85
2022/09/07 02:35:47;;;;;;;14.57;5.13;;;;;;;15.40;100.00;101068.78;5029192;28;20040;-86
2022/09/07 02:38:13;;;;;;;14.38;4.93;;;;;;;15.41;100.00;101063.22;5021371;28;20029;-86
2022/09/07 02:40:38;;;;;;;13.02;4.70;;;;;;;15.44;100.00;101070.22;5030022;28;20059;-86
2022/09/07 02:43:06;;;;;;;13.88;5.28;;;;;;;15.45;100.00;101071.94;5031330;28;20036;-86
2022/09/07 02:46:04;;;;;;;12.18;4.35;;;;;;;15.49;100.00;101079.63;5029168;28;20033;-86
2022/09/07 02:48:43;;;;;;;16.70;5.65;;;;;;;15.44;100.00;101072.91;5015857;28;20063;-86
2022/09/07 02:51:30;;;;;;;13.30;4.80;;;;;;;15.41;100.00;101065.91;5029261;28;20167;-86
2022/09/07 02:54:07;;;;;;;15.68;5.35;;;;;;;15.38;100.00;101058.91;5028298;28;20099;-86
2022/09/07 02:56:50;;;;;;;15.63;5.82;;;;;;;15.38;100.00;101061.63;5026839;28;20029;-85
2022/09/07 02:59:38;;;;;;;16.52;5.38;;;;;;;15.38;100.00;101067.03;5029296;28;20025;-85
2022/09/07 03:02:13;;;;;;;16.10;5.85;;;;;;;15.42;100.00;101077.59;5025887;28;20026;-85
2022/09/07 03:04:56;;;;;;;15.48;5.70;;;;;;;15.44;100.00;101081.03;5029282;28;20446;-86
2022/09/07 03:07:24;;;;;;;15.93;5.70;;;;;;;15.45;100.00;101075.50;5022845;28;20087;-85
2022/09/07 03:09:52;;;;;;;17.33;6.10;;;;;;;15.47;100.00;101080.75;5029209;28;20082;-85
2022/09/07 03:12:18;;;;;;;17.52;5.90;;;;;;;15.52;100.00;101076.66;5029218;28;20017;-85
2022/09/07 03:14:43;;;;;;;16.15;5.25;;;;;;;15.55;100.00;101068.25;5028481;28;20021;-86
2022/09/07 03:17:09;;;;;;;15.45;5.88;;;;;;;15.59;100.00;101063.38;5027738;28;20033;-86
2022/09/07 03:19:35;;;;;;;18.58;6.05;;;;;;;15.60;100.00;101058.84;5021962;28;20017;-86
2022/09/07 03:22:00;;;;;;;16.23;5.68;;;;;;;15.59;100.00;101057.97;5035319;28;20026;-86
2022/09/07 03:24:25;;;;;;;19.13;6.25;;;;;;;15.58;100.00;101056.28;5043034;28;20037;-86
2022/09/07 03:26:51;;;;;;;17.85;5.38;;;;;;;15.58;100.00;101056.28;5030224;28;20022;-86
2022/09/07 03:29:17;;;;;;;16.08;5.45;;;;;;;15.57;100.00;101064.53;5029665;28;20410;-86
2022/09/07 03:31:43;;;;;;;15.95;6.13;;;;;;;15.58;100.00;101066.22;5027878;28;20029;-86
2022/09/07 03:34:08;;;;;;;16.23;5.97;;;;;;;15.59;100.00;101071.50;5028519;28;20033;-86
2022/09/07 03:36:34;;;;;;;16.20;6.38;;;;;;;15.55;100.00;101060.13;5030628;28;20033;-86
2022/09/07 03:39:00;;;;;;;18.73;7.13;;;;;;;15.55;100.00;101056.56;5028123;28;20374;-86
2022/09/07 03:41:26;;;;;;;18.65;6.90;;;;;;;15.54;100.00;101060.25;5028424;28;20022;-86
2022/09/07 03:43:52;;;;;;;18.48;6.35;;;;;;;15.58;100.00;101063.53;5028396;28;20037;-86
2022/09/07 03:46:18;;;;;;;19.92;6.85;;;;;;;15.57;100.00;101073.50;5028127;28;20411;-86
2022/09/07 03:48:44;;;;;;;16.70;6.32;;;;;;;15.59;100.00;101073.38;5028406;28;20049;-86
2022/09/07 03:51:11;;;;;;;17.90;6.25;;;;;;;15.58;100.00;101061.69;5034604;28;20533;-86
2022/09/07 03:53:39;;;;;;;16.25;6.60;;;;;;;15.57;100.00;101062.69;5026583;28;20021;-86
2022/09/07 03:56:08;;;;;;;17.88;6.43;;;;;;;15.61;100.00;101055.13;5028934;28;20037;-86
2022/09/07 03:58:35;;;;;;;16.55;6.00;;;;;;;15.60;100.00;101048.84;5028986;28;20337;-86
2022/09/07 04:01:08;;;;;;;18.38;6.88;;;;;;;15.62;100.00;101037.88;5025766;28;20435;-86
2022/09/07 04:03:34;;;;;;;17.63;6.60;;;;;;;15.60;100.00;101038.00;5042867;28;20194;-87
2022/09/07 04:06:00;;;;;;;17.75;6.88;;;;;;;15.60;100.00;101038.00;5028940;28;20128;-86
2022/09/07 04:08:28;;;;;;;20.25;8.40;;;;;;;15.56;100.00;101031.16;5029531;28;20084;-86
2022/09/07 04:10:58;;;;;;;19.75;7.18;;;;;;;15.57;100.00;101023.91;5017243;28;20025;-86
2022/09/07 04:13:24;;;;;;;17.60;7.07;;;;;;;15.53;100.00;101026.91;5027062;28;20982;-86
2022/09/07 04:15:50;;;;;;;19.80;7.25;;;;;;;15.52;100.00;101016.19;5029076;28;20441;-86
2022/09/07 04:18:16;;;;;;;19.67;7.78;;;;;;;15.51;100.00;101011.78;5029612;28;20075;-86
2022/09/07 04:20:42;;;;;;;18.40;7.47;;;;;;;15.48;100.00;101006.66;5027212;28;20480;-86
2022/09/07 04:23:07;;;;;;;18.50;7.28;;;;;;;15.49;100.00;101008.34;5027358;28;20030;-86
2022/09/07 04:25:33;;;;;;;19.25;7.40;;;;;;;15.45;100.00;101006.94;5031945;28;20432;-86
2022/09/07 04:27:59;;;;;;;19.23;7.30;;;;;;;15.46;100.00;101027.56;5032273;28;20041;-86
2022/09/07 04:30:24;;;;;;;18.13;6.93;;;;;;;15.47;100.00;101037.44;5031363;28;20358;-86
2022/09/07 04:32:50;;;;;;;21.15;7.90;;;;;;;15.46;100.00;101033.00;5031593;28;20485;-86
2022/09/07 04:35:15;;;;;;;22.00;7.95;;;;;;;15.45;100.00;101034.00;5031387;28;20105;-86
2022/09/07 04:37:40;;;;;;;19.02;8.00;;;;;;;15.43;100.00;101039.53;5030022;28;20397;-86
2022/09/07 04:40:06;;;;;;;22.10;7.50;;;;;;;15.41;100.00;101038.00;5031850;28;20076;-86
2022/09/07 04:42:32;;;;;;;17.85;7.30;;;;;;;15.39;100.00;101038.13;5030452;28;20489;-86
2022/09/07 04:44:57;;;;;;;20.48;7.60;;;;;;;15.35;100.00;101034.84;5030893;28;20022;-86
2022/09/07 04:47:22;;;;;;;19.95;8.50;;;;;;;15.36;100.00;101031.13;5031193;28;20397;-86
2022/09/07 04:49:51;;;;;;;20.50;8.18;;;;;;;15.36;100.00;101036.56;5032202;28;20109;-86
2022/09/07 04:52:17;;;;;;;19.40;7.82;;;;;;;15.37;100.00;101032.84;5028333;28;20458;-86
2022/09/07 04:54:43;;;;;;;19.60;7.90;;;;;;;15.42;100.00;101034.25;5045453;28;20025;-86
2022/09/07 04:57:10;;;;;;;19.27;7.63;;;;;;;15.44;100.00;101033.13;5031575;28;20401;-86
2022/09/07 04:59:35;;;;;;;20.60;7.70;;;;;;;15.48;100.00;101034.56;5033629;28;20021;-86
2022/09/07 05:02:02;;;;;;;18.63;7.40;;;;;;;15.53;100.00;101039.56;5030801;28;20033;-86
2022/09/07 05:04:27;;;;;;;20.35;8.25;;;;;;;15.56;100.00;101028.44;5029234;28;20033;-86
2022/09/07 05:06:53;;;;;;;20.20;8.70;;;;;;;15.58;100.00;101017.47;5028982;28;20025;-86
2022/09/07 05:09:18;;;;;;;18.70;7.47;;;;;;;15.61;100.00;101020.78;5031557;28;20037;-86
2022/09/07 05:11:44;;;;;;;20.15;8.07;;;;;;;15.61;100.00;101023.47;5030583;28;20453;-86
2022/09/07 05:14:10;;;;;;;19.67;8.27;;;;;;;15.60;100.00;101013.63;5031078;28;20023;-86
2022/09/07 05:16:35;;;;;;;19.65;8.23;;;;;;;15.59;100.00;101011.91;5030698;28;20033;-86
2022/09/07 05:19:02;;;;;;;22.30;8.35;;;;;;;15.57;100.00;101016.63;5031592;28;20390;-86
2022/09/07 05:21:33;;;;;;;20.98;8.82;;;;;;;15.58;100.00;101023.75;5030419;28;20051;-86
2022/09/07 05:23:59;;;;;;;19.92;8.05;;;;;;;15.56;100.00;101020.31;5038254;28;20037;-85
2022/09/07 05:26:27;;;;;;;19.05;8.07;;;;;;;15.55;100.00;101026.75;5030493;28;20457;-85
2022/09/07 05:28:55;;;;;;;20.35;9.30;;;;;;;15.53;100.00;101026.91;5029133;28;20025;-86
2022/09/07 05:31:22;;;;;;;21.65;9.43;;;;;;;15.54;100.00;101017.75;5041404;28;20064;-86
2022/09/07 05:33:52;;;;;;;21.50;8.68;;;;;;;15.53;100.00;101017.91;5030354;28;20100;-86
2022/09/07 05:36:19;;;;;;;21.30;9.85;;;;;;;15.53;100.00;101028.72;5028082;28;20037;-86
2022/09/07 05:38:45;;;;;;;21.58;9.85;;;;;;;15.53;100.00;101024.19;5026651;28;20219;-86
2022/09/07 05:41:16;;;;;;;21.23;9.98;;;;;;;15.52;100.00;101037.84;5026817;28;20112;-86
2022/09/07 05:43:41;;;;;;;21.30;9.55;;;;;;;15.52;100.00;101030.59;5027358;28;20056;-86
2022/09/07 05:46:08;;;;;;;21.40;9.07;;;;;;;15.54;100.00;101023.16;5027714;28;20060;-86
2022/09/07 05:48:33;;;;;;;21.88;10.25;;;;;;;15.56;100.00;101020.31;5023756;28;20034;-86
2022/09/07 05:50:59;;;;;;;21.35;10.50;;;;;;;15.58;100.00;101023.75;5026055;28;20036;-86
2022/09/07 05:53:24;;;;;;;25.17;10.88;;;;;;;15.60;100.00;101035.31;5030161;28;20136;-86
2022/09/07 05:55:49;;;;;;;22.27;10.85;;;;;;;15.61;100.00;101028.03;5030784;28;20196;-86
2022/09/07 05:58:16;;;;;;;25.67;11.48;;;;;;;15.64;100.00;101039.44;5028230;28;20074;-86
2022/09/07 06:00:42;;;;;;;29.60;12.43;;;;;;;15.68;100.00;101045.44;5028932;28;20088;-86
2022/09/07 06:03:08;;;;;;;23.55;11.40;;;;;;;15.70;100.00;101054.28;5028356;28;20048;-86
2022/09/07 06:05:33;;;;;;;24.50;12.32;;;;;;;15.73;100.00;101051.28;5051975;22;20603;-78
2022/09/07 06:07:58;;;;;;;21.30;10.38;;;;;;;15.73;100.00;101060.28;5031173;28;20164;-77
2022/09/07 06:10:25;;;;;;;22.88;11.85;;;;;;;15.75;100.00;101051.16;5030796;28;20378;-77
2022/09/07 06:12:50;;;;;;;24.50;11.43;;;;;;;15.73;100.00;101054.84;5014620;28;20504;-77
2022/09/07 06:15:15;;;;;;;23.10;12.02;;;;;;;15.73;100.00;101054.84;5031294;28;20084;-76
2022/09/07 06:17:40;;;;;;;26.73;12.40;;;;;;;15.75;100.00;101067.41;5032099;28;20037;-76
2022/09/07 06:20:06;;;;;;;30.95;14.38;;;;;;;15.76;100.00;101058.28;5028651;28;20204;-76
2022/09/07 06:22:36;;;;;;;25.55;12.15;;;;;;;15.74;100.00;101053.00;5030201;28;20032;-76
2022/09/07 06:25:02;;;;;;;26.23;12.27;;;;;;;15.73;100.00;101059.41;5031355;28;20032;-76
2022/09/07 06:27:28;;;;;;;24.67;13.23;;;;;;;15.77;100.00;101060.88;5013268;28;20123;-76
2022/09/07 06:29:53;;;;;;;24.80;12.88;;;;;;;15.81;100.00;101066.88;5012107;28;20159;-76
2022/09/07 06:32:18;;;;;;;27.38;13.27;;;;;;;15.86;100.00;101072.75;5028267;28;20022;-76
2022/09/07 06:34:44;;;;;;;29.60;14.15;;;;;;;15.88;100.00;101063.44;5030013;28;20025;-77
2022/09/07 06:37:09;;;;;;;24.63;14.32;;;;;;;15.89;100.00;101064.31;5028831;28;20030;-77
2022/09/07 06:39:35;;;;;;;26.42;15.40;;;;;;;15.96;100.00;101072.72;5020918;28;20388;-77
2022/09/07 06:42:01;;;;;;;26.23;15.00;;;;;;;15.99;100.00;101070.59;5022784;28;20036;-77
2022/09/07 06:44:26;;;;;;;28.00;16.85;;;;;;;16.03;100.00;101080.16;5006736;28;20432;-77
2022/09/07 06:46:51;;;;;;;26.48;16.13;;;;;;;16.07;100.00;101072.59;5018456;28;20021;-77
2022/09/07 06:49:16;;;;;;;30.10;17.75;;;;;;;16.10;100.00;101076.88;5019862;28;20037;-77
2022/09/07 06:51:42;;;;;;;26.58;16.80;;;;;;;16.14;100.00;101076.44;5018800;28;20025;-77
2022/09/07 06:54:08;;;;;;;31.02;19.70;;;;;;;16.19;100.00;101076.00;5023450;28;20029;-77
2022/09/07 06:56:33;;;;;;;32.95;19.67;;;;;;;16.23;100.00;101078.28;5015400;28;20021;-77
2022/09/07 06:58:59;;;;;;;32.95;20.67;;;;;;;16.28;100.00;101071.56;5002889;28;20037;-77
2022/09/07 07:01:25;;;;;;;33.05;20.25;;;;;;;16.35;100.00;101072.72;5022412;28;20469;-77
2022/09/07 07:03:52;;;;;;;35.47;21.75;;;;;;;16.42;100.00;101074.69;5001836;28;20087;-76
2022/09/07 07:06:18;;;;;;;35.80;24.00;;;;;;;16.47;100.00;101077.00;5022342;28;20470;-75
2022/09/07 07:08:43;;;;;;;35.28;22.33;;;;;;;16.54;100.00;101085.38;5026982;28;20481;-75
2022/09/07 07:11:11;;;;;;;34.65;22.40;;;;;;;16.62;100.00;101090.06;5027850;28;20040;-75
2022/09/07 07:13:38;;;;;;;36.05;24.55;;;;;;;16.69;100.00;101094.78;5029517;28;20397;-75
2022/09/07 07:16:09;;;;;;;33.58;24.80;;;;;;;16.75;100.00;101093.31;5023607;28;20025;-74
2022/09/07 07:18:35;;;;;;;37.40;25.70;;;;;;;16.83;100.00;101081.75;5028875;28;20104;-75
2022/09/07 07:21:03;;;;;;;34.22;24.55;;;;;;;16.87;100.00;101085.88;5027741;28;20116;-75
2022/09/07 07:23:28;;;;;;;36.40;25.67;;;;;;;16.97;100.00;101083.16;5029441;28;20025;-75
2022/09/07 07:25:53;;;;;;;40.35;27.30;;;;;;;17.05;100.00;101092.25;5031516;28;20106;-75
2022/09/07 07:28:22;;;;;;;38.53;28.02;;;;;;;17.07;100.00;101087.56;5009193;28;20028;-75
2022/09/07 07:30:53;;;;;;;39.70;26.92;;;;;;;17.15;100.00;101091.41;5031727;28;20022;-75
2022/09/07 07:33:18;;;;;;;37.58;27.15;;;;;;;17.15;100.00;101100.38;5019322;28;20508;-75
2022/09/07 07:35:43;;;;;;;35.30;24.80;;;;;;;17.14;100.00;101097.81;5026251;28;20017;-76
2022/09/07 07:38:09;;;;;;;34.97;24.95;;;;;;;17.12;100.00;101095.25;5026895;28;20091;-76
2022/09/07 07:40:34;;;;;;;36.08;24.15;;;;;;;17.12;100.00;101100.69;5031170;28;20554;-76
2022/09/07 07:42:59;;;;;;;37.15;24.80;;;;;;;17.18;100.00;101101.94;5029040;28;20038;-76
2022/09/07 07:45:25;;;;;;;34.05;23.13;;;;;;;17.22;100.00;101106.06;5011009;28;20023;-77
2022/09/07 07:47:50;;;;;;;35.80;24.27;;;;;;;17.24;100.00;101104.06;5026445;28;20483;-76
2022/09/07 07:50:16;;;;;;;34.35;23.73;;;;;;;17.22;100.00;101103.34;5020275;28;20021;-76
2022/09/07 07:52:41;;;;;;;33.85;23.50;;;;;;;17.28;100.00;101103.59;5022222;28;20027;-76
2022/09/07 07:55:07;;;;;;;35.05;24.00;;;;;;;17.32;100.00;101104.19;5014329;28;20021;-76
2022/09/07 07:57:32;;;;;;;34.15;21.95;;;;;;;17.35;100.00;101111.16;5030733;28;20035;-77
2022/09/07 07:59:57;;;;;;;34.58;23.40;;;;;;;17.40;100.00;101119.72;5033454;28;20413;-75
2022/09/07 08:02:23;;;;;;;33.70;23.02;;;;;;;17.43;100.00;101119.41;5031793;28;20033;-76
2022/09/07 08:04:49;;;;;;;32.80;23.20;;;;;;;17.46;100.00;101114.50;5035284;28;20021;-77
2022/09/07 08:07:15;;;;;;;34.25;21.77;;;;;;;17.51;100.00;101116.81;5034574;28;20068;-78
2022/09/07 08:09:42;;;;;;;34.88;23.23;;;;;;;17.55;100.00;101111.91;5015012;28;20115;-78
2022/09/07 08:12:10;;;;;;;32.05;21.77;;;;;;;17.59;100.00;101118.75;5036492;28;20065;-78
2022/09/07 08:14:39;;;;;;;32.60;21.80;;;;;;;17.67;100.00;101121.56;5024120;28;20025;-78
2022/09/07 08:17:05;;;;;;;38.15;23.63;;;;;;;17.72;100.00;101121.13;5034435;28;20060;-78
2022/09/07 08:19:30;;;;;;;31.23;22.08;;;;;;;17.76;100.00;101122.50;5033400;28;20063;-78
2022/09/07 08:21:55;;;;;;;31.40;20.60;;;;;;;17.80;100.00;101129.34;5034787;28;20029;-78
2022/09/07 08:24:20;;;;;;;31.23;19.67;;;;;;;17.86;100.00;101130.59;5022917;28;20523;-78
2022/09/07 08:26:46;;;;;;;29.15;19.98;;;;;;;17.90;100.00;101132.03;5028010;28;20030;-78
2022/09/07 08:29:12;;;;;;;30.70;21.10;;;;;;;17.95;100.00;101124.25;5029625;28;20030;-78
2022/09/07 08:31:37;;;;;;;33.28;20.95;;;;;;;17.98;100.00;101129.41;5020667;28;20025;-78
2022/09/07 08:34:02;;;;;;;29.73;19.95;;;;;;;18.02;100.00;101132.69;5035282;28;20044;-78
2022/09/07 08:36:30;;;;;;;29.92;20.05;;;;;;;18.07;100.00;101125.75;5036259;28;20025;-78
2022/09/07 08:38:56;;;;;;;32.33;18.77;;;;;;;18.13;100.00;101132.44;5033275;28;20021;-78
2022/09/07 08:41:41;;;;;;;35.08;20.15;;;;;;;18.21;100.00;101135.22;5031208;28;20091;-78
2022/09/07 08:44:15;;;;;;;28.55;18.98;;;;;;;18.24;98.69;101131.34;5032579;28;20443;-78
2022/09/07 08:46:47;;;;;;;28.75;18.52;;;;;;;18.31;100.00;101125.13;5041903;28;20087;-78
2022/09/07 08:49:28;;;;;;;30.08;19.42;;;;;;;18.38;99.81;101133.53;5032912;28;20481;-78
2022/09/07 08:51:59;;;;;;;28.40;17.15;;;;;;;18.43;98.38;101133.91;5011173;28;20678;-78
2022/09/07 08:54:24;;;;;;;28.17;17.42;;;;;;;18.49;98.71;101133.28;5032800;28;20022;-78
2022/09/07 08:56:52;;;;;;;28.08;17.23;;;;;;;18.54;97.86;101134.66;5014677;28;20492;-78
2022/09/07 08:59:23;;;;;;;25.35;15.48;;;;;;;18.58;97.27;101141.50;5025222;28;20441;-78
2022/09/07 09:01:48;;;;;;;26.27;15.40;;;;;;;18.61;95.21;101141.19;5022678;28;20064;-78
2022/09/07 09:04:20;;;;;;;26.17;14.48;;;;;;;18.65;94.60;101135.28;5028340;28;20025;-78
2022/09/07 09:06:51;;;;;;;25.23;14.13;;;;;;;18.70;95.08;101140.25;5028721;28;20129;-78
2022/09/07 09:09:30;;;;;;;26.05;15.05;;;;;;;18.74;95.26;101141.66;5036932;28;20610;-78
2022/09/07 09:12:05;;;;;;;26.15;15.23;;;;;;;18.78;93.18;101140.28;5032063;28;20032;-78
2022/09/07 09:14:51;;;;;;;26.55;14.77;;;;;;;18.82;94.28;101147.13;5027788;28;20117;-78
2022/09/07 09:17:59;;;;;;;26.30;15.15;;;;;;;18.88;94.58;101134.78;5031655;28;20032;-78
2022/09/07 09:20:39;;;;;;;24.55;12.63;;;;;;;18.95;93.88;101137.72;5033272;28;20488;-78
2022/09/07 09:23:12;;;;;;;23.00;12.10;;;;;;;18.98;92.06;101132.81;5031337;28;20029;-78
2022/09/07 09:25:44;;;;;;;23.27;10.63;;;;;;;19.02;90.59;101134.19;5031603;28;20161;-78
2022/09/07 09:28:12;;;;;;;23.40;10.13;;;;;;;19.08;89.72;101138.16;5028331;28;20083;-78
2022/09/07 09:30:37;;;;;;;22.35;10.35;;;;;;;19.13;87.43;101143.13;5044272;28;20064;-77
2022/09/07 09:33:19;;;;;;;21.85;8.95;;;;;;;19.22;88.30;101144.84;5029466;28;20059;-77
2022/09/07 09:35:48;;;;;;;20.55;8.32;;;;;;;19.27;87.32;101144.38;5014678;28;20033;-77
2022/09/07 09:38:28;;;;;;;22.63;10.00;;;;;;;19.32;87.69;101139.28;5010471;28;20061;-77
2022/09/07 09:40:55;;;;;;;22.63;8.77;;;;;;;19.34;85.36;101139.97;5029170;28;20033;-77
2022/09/07 09:43:24;;;;;;;22.17;8.02;;;;;;;19.38;85.59;101139.47;5027316;28;20389;-77
2022/09/07 09:45:55;;;;;;;17.88;6.45;;;;;;;19.47;85.45;101136.81;5028654;28;20029;-77
2022/09/07 09:48:31;;;;;;;19.00;6.28;;;;;;;19.52;83.87;101135.28;5019045;28;20060;-77
2022/09/07 09:50:58;;;;;;;17.60;6.18;;;;;;;19.55;85.76;101137.69;5031817;28;20049;-77
2022/09/07 09:53:35;;;;;;;17.48;5.75;;;;;;;19.62;84.02;101139.75;5032071;28;20025;-77
2022/09/07 09:56:05;;;;;;;17.42;6.28;;;;;;;19.63;83.12;101141.47;5013404;28;20436;-77
2022/09/07 09:58:36;;;;;;;18.67;6.32;;;;;;;19.63;83.41;101136.84;5031859;28;20030;-77
2022/09/07 10:01:07;;;;;;;18.73;6.28;;;;;;;19.67;82.85;101143.69;5035125;28;20029;-77
2022/09/07 10:03:33;;;;;;;17.08;5.22;;;;;;;19.72;83.80;101140.47;5028263;28;20549;-77
2022/09/07 10:06:02;;;;;;;17.55;5.63;;;;;;;19.74;79.68;101136.56;5027286;28;20102;-77
2022/09/07 10:08:30;;;;;;;15.27;4.90;;;;;;;19.78;82.28;101134.41;5038552;28;20033;-77
2022/09/07 10:11:08;;;;;;;14.13;4.38;;;;;;;19.82;80.46;101138.47;5029966;28;20036;-77
2022/09/07 10:13:40;;;;;;;16.70;4.75;;;;;;;19.90;79.48;101127.59;5032466;28;20067;-77
2022/09/07 10:16:08;;;;;;;15.15;4.00;;;;;;;19.93;78.95;101118.25;5033127;28;20083;-77
2022/09/07 10:18:37;;;;;;;14.82;4.28;;;;;;;19.99;77.61;101114.84;5030876;28;20033;-78
2022/09/07 10:21:26;;;;;;;14.32;4.85;;;;;;;20.08;77.11;101112.97;5030686;28;20512;-78
2022/09/07 10:23:59;;;;;;;14.52;4.50;;;;;;;20.16;78.13;101120.31;5032378;28;20033;-78
2022/09/07 10:26:33;;;;;;;14.82;4.43;;;;;;;20.19;77.80;101123.56;5030122;28;20521;-78
2022/09/07 10:29:10;;;;;;;18.70;5.00;;;;;;;20.22;79.45;101122.34;5039386;28;20496;-78
2022/09/07 10:31:44;;;;;;;15.90;4.13;;;;;;;20.32;79.87;101108.53;5034470;28;20086;-78
2022/09/07 10:34:58;;;;;;;11.38;3.88;;;;;;;20.35;78.43;101110.94;5021779;28;20075;-78
2022/09/07 10:37:27;;;;;;;16.80;4.05;;;;;;;20.39;75.76;101113.16;5023918;28;20037;-77
2022/09/07 10:40:15;;;;;;;10.75;3.78;;;;;;;20.45;77.16;101108.88;5033545;28;20115;-77
2022/09/07 10:42:49;;;;;;;12.95;3.53;;;;;;;20.51;77.84;101113.66;5030263;28;20408;-77
2022/09/07 10:45:18;;;;;;;10.93;3.50;;;;;;;20.58;74.88;101103.75;5029604;28;20025;-78
2022/09/07 10:48:06;;;;;;;15.35;3.88;;;;;;;20.69;75.63;101109.91;5031289;28;20037;-78
2022/09/07 10:50:44;;;;;;;18.08;4.03;;;;;;;20.75;75.27;101103.78;5020133;28;20120;-78
2022/09/07 10:53:29;;;;;;;12.48;3.60;;;;;;;20.77;75.20;101105.28;5029843;28;20068;-78
2022/09/07 10:56:04;;;;;;;14.40;3.65;;;;;;;20.81;73.10;101105.81;5030981;28;20032;-78
2022/09/07 10:58:30;;;;;;;11.73;3.22;;;;;;;20.89;71.43;101105.78;5027060;28;20433;-78
2022/09/07 11:01:27;;;;;;;13.90;4.05;;;;;;;20.89;70.09;101105.78;5028056;28;20037;-78
2022/09/07 11:04:08;;;;;;;13.57;3.72;;;;;;;20.91;71.15;101097.44;4987695;28;20057;-78
2022/09/07 11:06:38;;;;;;;11.35;3.33;;;;;;;20.89;70.96;101105.78;4988158;28;20050;-77
2022/09/07 11:09:35;;;;;;;12.07;3.75;;;;;;;20.95;72.49;101091.44;4988479;28;20562;-77
2022/09/07 11:12:09;;;;;;;12.10;3.65;;;;;;;21.05;70.48;101093.97;4988542;28;20490;-77
2022/09/07 11:14:46;;;;;;;10.68;3.80;;;;;;;21.02;69.89;101093.47;4979355;28;20039;-77
2022/09/07 11:17:19;;;;;;;8.77;3.20;;;;;;;21.12;71.64;101088.66;4974498;28;20316;-77
2022/09/07 11:20:09;;;;;;;14.45;4.25;;;;;;;21.16;71.08;101086.41;4983424;28;20045;-77
2022/09/07 11:22:35;;;;;;;11.25;3.70;;;;;;;21.27;69.43;101092.38;4989941;28;20027;-77
2022/09/07 11:25:15;;;;;;;14.10;4.00;;;;;;;21.27;70.66;101086.03;4973409;28;20037;-77